Terminal Aerodrome Forecast
Issued by NWS Wilmington, OH

Home | Current Version | Previous Version | Text Only | Print | Product List | Glossary On
Versions: 1 2 3 4 5 6 7 8 9 10 11 12 13 14 15 16 17 18 19 20 21 22 23 24 25 26 27 28 29 30 31 32 33
000
FTUS41 KILN 032337
TAFCVG
TAF
KCVG 032337Z 0400/0506 02010KT P6SM VCTS BKN050CB
     FM040100 32005KT P6SM SCT050
     FM040600 VRB03KT P6SM SKC
      TEMPO 0409/0412 4SM BR
     FM041400 28009KT P6SM SCT040
     FM050000 VRB03KT P6SM SKC=

USA.gov is the U.S. government's official web portal to all federal, state and local government web resources and services.